EGKK/LGW METAR and TAF weather

Enter ICAO airport designator
Station Type Date Time Source
EGKK METAR 2018/04/19 13:20 UTC NOAA

EGKK 191320Z 13004KT 080V210 CAVOK 27/09 Q1023


Station Type Date Time Source
EGKK Decoded METAR 2018/04/19 13:20 UTC NOAA

London / Gatwick Airport, United Kingdom (EGKK) 51-09N 000-11W 0M
Apr 19, 2018 - 09:20 AM EDT / 2018.04.19 1320 UTC
Wind: from the SE (130 degrees) at 5 MPH (4 KT) (direction variable):0
Visibility: greater than 7 mile(s):0
Temperature: 80 F (27 C)
Dew Point: 48 F (9 C)
Relative Humidity: 32%
Pressure (altimeter): 30.21 in. Hg (1023 hPa)
ob: EGKK 191320Z 13004KT 080V210 CAVOK 27/09 Q1023
cycle: 13

Station Type Date Time Source
EGKK TAF 2018/04/19 12:18 UTC NOAA

TAF EGKK 191056Z 1912/2018 17005KT CAVOK
BECMG 1921/1924 7000 PROB30 2003/2008 0800 FG VV///
BECMG 2007/2010 CAVOK


Example: see airport list